createdAt,value
2023-02-20T00:00:47.389Z,1.73
2023-02-20T00:03:15.937Z,1.90
2023-02-20T00:05:43.941Z,1.83
2023-02-20T00:08:13.176Z,1.70
2023-02-20T00:10:41.356Z,1.60
2023-02-20T00:13:09.234Z,1.88
2023-02-20T00:15:37.121Z,1.90
2023-02-20T00:18:05.102Z,1.67
2023-02-20T00:20:33.392Z,1.90
2023-02-20T00:23:01.280Z,1.50
2023-02-20T00:25:30.703Z,1.65
2023-02-20T00:27:58.574Z,1.65
2023-02-20T00:30:26.533Z,1.75
2023-02-20T00:32:55.421Z,1.88
2023-02-20T00:35:23.402Z,1.70
2023-02-20T00:37:51.540Z,1.80
2023-02-20T00:40:20.081Z,1.63
2023-02-20T00:42:49.320Z,1.67
2023-02-20T00:45:17.640Z,1.73
2023-02-20T00:47:45.513Z,1.70
2023-02-20T00:50:14.322Z,1.77
2023-02-20T00:52:42.200Z,1.77
2023-02-20T00:55:10.217Z,1.77
2023-02-20T00:57:39.456Z,1.85
2023-02-20T01:00:10.094Z,1.90
2023-02-20T01:02:39.827Z,1.90
2023-02-20T01:05:08.577Z,1.85
2023-02-20T01:07:36.994Z,1.70
2023-02-20T01:10:05.115Z,1.60
2023-02-20T01:12:33.730Z,1.90
2023-02-20T01:15:01.660Z,1.70
2023-02-20T01:17:31.222Z,1.65
2023-02-20T01:19:59.148Z,1.67
2023-02-20T01:22:27.021Z,2.00
2023-02-20T01:24:54.853Z,1.70
2023-02-20T01:27:23.022Z,1.70
2023-02-20T01:29:50.944Z,1.65
2023-02-20T01:32:18.803Z,1.60
2023-02-20T01:34:48.069Z,1.60
2023-02-20T01:37:17.986Z,1.52
2023-02-20T01:39:47.942Z,1.80
2023-02-20T01:42:20.173Z,1.80
2023-02-20T01:44:48.061Z,1.55
2023-02-20T01:47:17.234Z,1.60
2023-02-20T01:49:45.864Z,1.50
2023-02-20T01:52:16.607Z,1.60
2023-02-20T01:54:45.924Z,1.77
2023-02-20T01:57:15.678Z,1.60
2023-02-20T01:59:43.893Z,1.52
2023-02-20T02:02:14.574Z,1.60
2023-02-20T02:04:42.428Z,1.60
2023-02-20T02:07:10.394Z,1.70
2023-02-20T02:09:41.972Z,1.50
2023-02-20T02:12:09.859Z,1.55
2023-02-20T02:14:37.845Z,1.67
2023-02-20T02:17:27.205Z,1.80
2023-02-20T02:20:16.208Z,1.30
2023-02-20T02:23:22.925Z,1.50
2023-02-20T02:25:56.216Z,1.70
2023-02-20T02:28:58.636Z,1.45
2023-02-20T02:31:55.898Z,1.30
2023-02-20T02:34:51.792Z,1.60
2023-02-20T02:37:21.601Z,1.80
2023-02-20T02:39:52.085Z,1.50
2023-02-20T02:42:22.659Z,1.60
2023-02-20T02:44:55.184Z,1.48
2023-02-20T02:47:24.382Z,1.50
2023-02-20T02:49:54.574Z,1.50
2023-02-20T02:52:46.688Z,1.40
2023-02-20T02:55:15.027Z,1.33
2023-02-20T02:57:42.882Z,1.38
2023-02-20T03:00:12.105Z,1.63
2023-02-20T03:02:43.538Z,1.50
2023-02-20T03:05:12.154Z,1.40
2023-02-20T03:07:41.423Z,1.60
2023-02-20T03:10:10.617Z,1.50
2023-02-20T03:12:41.058Z,1.40
2023-02-20T03:15:27.848Z,1.30
2023-02-20T03:17:57.663Z,1.30
2023-02-20T03:20:25.562Z,1.55
2023-02-20T03:22:55.728Z,1.35
2023-02-20T03:25:26.372Z,1.58
2023-02-20T03:27:56.911Z,1.30
2023-02-20T03:30:27.551Z,1.20
2023-02-20T03:33:16.825Z,1.25
2023-02-20T03:36:02.858Z,1.45
2023-02-20T03:38:50.663Z,1.50
2023-02-20T03:41:36.670Z,1.25
2023-02-20T03:44:05.911Z,1.40
2023-02-20T03:46:34.541Z,1.30
2023-02-20T03:49:05.871Z,1.30
2023-02-20T03:51:33.503Z,1.38
2023-02-20T03:54:07.504Z,1.25
2023-02-20T03:56:38.300Z,1.40
2023-02-20T03:59:09.286Z,1.33
2023-02-20T04:01:37.170Z,1.30
2023-02-20T04:04:06.935Z,1.40
2023-02-20T04:06:35.202Z,1.23
2023-02-20T04:09:04.925Z,1.30
2023-02-20T04:11:38.225Z,1.25
2023-02-20T04:14:06.898Z,1.20
2023-02-20T04:16:38.748Z,1.25
2023-02-20T04:19:06.714Z,1.15
2023-02-20T04:21:36.685Z,1.23
2023-02-20T04:24:06.182Z,1.33
2023-02-20T04:26:34.030Z,1.17
2023-02-20T04:29:03.346Z,1.20
2023-02-20T04:31:31.268Z,1.33
2023-02-20T04:33:59.139Z,1.10
2023-02-20T04:36:27.537Z,1.30
2023-02-20T04:38:58.318Z,1.17
2023-02-20T04:41:30.397Z,1.42
2023-02-20T04:44:12.256Z,1.30
2023-02-20T04:46:41.971Z,1.20
2023-02-20T04:49:09.980Z,1.20
2023-02-20T04:51:38.897Z,1.35
2023-02-20T04:54:06.906Z,1.20
2023-02-20T04:56:35.357Z,1.30
2023-02-20T04:59:05.208Z,1.30
2023-02-20T05:01:33.799Z,1.50
2023-02-20T05:04:03.009Z,1.30
2023-02-20T05:06:30.935Z,1.20
2023-02-20T05:08:59.137Z,1.25
2023-02-20T05:11:27.028Z,1.20
2023-02-20T05:13:55.152Z,1.35
2023-02-20T05:16:22.984Z,1.40
2023-02-20T05:18:50.806Z,1.38
2023-02-20T05:21:43.047Z,1.30
2023-02-20T05:24:10.927Z,1.30
2023-02-20T05:26:38.860Z,1.27
2023-02-20T05:29:06.824Z,1.30
2023-02-20T05:31:34.787Z,1.50
2023-02-20T05:34:02.732Z,1.33
2023-02-20T05:36:33.455Z,1.38
2023-02-20T05:39:01.345Z,1.20
2023-02-20T05:41:29.212Z,1.30
2023-02-20T05:43:58.446Z,1.30
2023-02-20T05:46:26.512Z,1.40
2023-02-20T05:48:54.941Z,1.20
2023-02-20T05:51:24.364Z,1.15
2023-02-20T05:53:53.584Z,1.20
2023-02-20T05:56:21.561Z,1.27
2023-02-20T05:58:49.763Z,1.00
2023-02-20T06:01:19.000Z,1.35
2023-02-20T06:03:46.893Z,1.38
2023-02-20T06:06:14.865Z,1.48
2023-02-20T06:08:42.902Z,1.30
2023-02-20T06:11:12.672Z,1.20
2023-02-20T06:13:41.446Z,1.40
2023-02-20T06:16:09.582Z,1.20
2023-02-20T06:18:39.721Z,1.20
2023-02-20T06:21:09.182Z,1.20
2023-02-20T06:23:38.019Z,1.05
2023-02-20T06:26:06.330Z,1.20
2023-02-20T06:28:35.628Z,1.13
2023-02-20T06:31:03.608Z,1.15
2023-02-20T06:33:31.552Z,1.20
2023-02-20T06:35:59.422Z,1.20
2023-02-20T06:38:27.363Z,1.30
2023-02-20T06:40:55.236Z,1.60
2023-02-20T06:43:23.119Z,1.35
2023-02-20T06:45:52.310Z,1.20
2023-02-20T06:48:20.141Z,1.45
2023-02-20T06:50:48.077Z,1.30
2023-02-20T06:53:15.916Z,1.13
2023-02-20T06:55:43.771Z,1.10
2023-02-20T06:58:11.644Z,1.30
2023-02-20T07:00:39.510Z,1.25
2023-02-20T07:03:08.688Z,1.30
2023-02-20T07:05:36.653Z,1.13
2023-02-20T07:08:04.634Z,1.30
2023-02-20T07:10:32.469Z,1.10
2023-02-20T07:13:00.341Z,1.13
2023-02-20T07:15:28.243Z,1.20
2023-02-20T07:17:56.097Z,1.23
2023-02-20T07:20:25.368Z,1.20
2023-02-20T07:22:54.275Z,1.15
2023-02-20T07:25:22.166Z,1.25
2023-02-20T07:27:50.189Z,1.15
2023-02-20T07:30:18.102Z,1.50
2023-02-20T07:32:45.982Z,1.58
2023-02-20T07:35:13.827Z,1.27
2023-02-20T07:37:43.050Z,1.30
2023-02-20T07:40:12.576Z,1.30
2023-02-20T07:42:40.420Z,1.55
2023-02-20T07:45:15.104Z,1.10
2023-02-20T07:47:43.265Z,1.15
2023-02-20T07:50:11.217Z,1.15
2023-02-20T07:52:39.082Z,1.10
2023-02-20T07:55:08.789Z,1.20
2023-02-20T07:57:37.252Z,1.30
2023-02-20T08:00:05.787Z,1.30
2023-02-20T08:02:40.061Z,1.15
2023-02-20T08:05:08.111Z,1.20
2023-02-20T08:07:36.178Z,1.38
2023-02-20T08:10:04.182Z,1.25
2023-02-20T08:12:33.437Z,1.20
2023-02-20T08:15:01.340Z,1.10
2023-02-20T08:17:44.186Z,1.10
2023-02-20T08:20:13.944Z,1.30
2023-02-20T08:22:42.433Z,1.20
2023-02-20T08:25:10.506Z,1.20
2023-02-20T08:27:43.135Z,1.40
2023-02-20T08:30:12.633Z,1.08
2023-02-20T08:32:40.727Z,1.27
2023-02-20T08:35:09.241Z,1.20
2023-02-20T08:37:37.174Z,1.20
2023-02-20T08:40:08.217Z,1.10
2023-02-20T08:42:36.237Z,1.20
2023-02-20T08:45:06.845Z,1.17
2023-02-20T08:47:34.729Z,1.17
2023-02-20T08:50:02.597Z,1.27
2023-02-20T08:52:30.466Z,1.15
2023-02-20T08:54:58.344Z,1.30
2023-02-20T08:57:26.277Z,1.23
2023-02-20T08:59:54.186Z,1.20
2023-02-20T09:02:26.204Z,1.30
2023-02-20T09:04:54.149Z,1.30
2023-02-20T09:07:22.097Z,1.45
2023-02-20T09:09:50.649Z,1.27
2023-02-20T09:12:18.651Z,1.20
2023-02-20T09:14:46.578Z,1.17
2023-02-20T09:17:14.429Z,1.23
2023-02-20T09:19:43.628Z,1.10
2023-02-20T09:22:11.700Z,1.27
2023-02-20T09:24:39.598Z,1.55
2023-02-20T09:27:07.528Z,1.45
2023-02-20T09:29:36.801Z,1.42
2023-02-20T09:32:05.263Z,1.48
2023-02-20T09:34:33.158Z,1.30
2023-02-20T09:37:02.368Z,1.15
2023-02-20T09:39:30.227Z,1.40
2023-02-20T09:42:05.892Z,1.23
2023-02-20T09:44:37.233Z,1.35
2023-02-20T09:47:09.175Z,1.15
2023-02-20T09:49:38.251Z,1.30
2023-02-20T09:52:11.814Z,1.33
2023-02-20T09:54:41.207Z,1.40
2023-02-20T09:57:11.740Z,1.40
2023-02-20T09:59:40.830Z,1.20
2023-02-20T10:02:13.942Z,1.50
2023-02-20T10:04:58.820Z,1.27
2023-02-20T10:07:30.625Z,1.30
2023-02-20T10:09:59.575Z,1.35
2023-02-20T10:12:30.157Z,1.40
2023-02-20T10:15:20.914Z,1.40
2023-02-20T10:17:53.560Z,1.40
2023-02-20T10:20:24.883Z,1.10
2023-02-20T10:22:58.032Z,1.00
2023-02-20T10:25:29.044Z,1.30
2023-02-20T10:28:00.746Z,1.30
2023-02-20T10:30:31.107Z,1.20
2023-02-20T10:33:02.891Z,1.40
2023-02-20T10:35:35.035Z,1.25
2023-02-20T10:38:07.469Z,1.13
2023-02-20T10:40:37.644Z,1.30
2023-02-20T10:43:06.930Z,1.08
2023-02-20T10:45:40.549Z,1.40
2023-02-20T10:48:09.210Z,1.30
2023-02-20T10:50:40.630Z,1.25
2023-02-20T10:53:14.782Z,1.30
2023-02-20T10:55:44.865Z,1.42
2023-02-20T10:58:14.646Z,1.30
2023-02-20T11:00:43.916Z,1.30
2023-02-20T11:03:14.020Z,1.27
2023-02-20T11:05:44.205Z,1.30
2023-02-20T11:08:13.437Z,1.40
2023-02-20T11:10:41.308Z,1.27
2023-02-20T11:13:10.352Z,1.35
2023-02-20T11:15:38.243Z,1.33
2023-02-20T11:18:06.860Z,1.30
2023-02-20T11:20:47.245Z,1.60
2023-02-20T11:23:40.253Z,1.40
2023-02-20T11:26:26.318Z,1.33
2023-02-20T11:29:03.646Z,1.38
2023-02-20T11:31:31.541Z,1.20
2023-02-20T11:33:59.521Z,1.33
2023-02-20T11:36:28.201Z,1.20
2023-02-20T11:39:01.089Z,1.50
2023-02-20T11:41:31.037Z,1.20
2023-02-20T11:44:30.350Z,1.25
2023-02-20T11:47:22.920Z,1.27
2023-02-20T11:49:50.938Z,1.27
2023-02-20T11:52:20.061Z,1.48
2023-02-20T11:54:49.393Z,1.35
2023-02-20T11:57:23.641Z,1.17
2023-02-20T11:59:51.807Z,1.33
2023-02-20T12:02:29.411Z,1.20
2023-02-20T12:05:09.654Z,1.42
2023-02-20T12:07:39.930Z,1.42
2023-02-20T12:10:30.310Z,1.30
2023-02-20T12:12:58.175Z,1.20
2023-02-20T12:15:27.003Z,1.45
2023-02-20T12:18:14.111Z,1.50
2023-02-20T12:20:44.432Z,1.40
2023-02-20T12:23:18.354Z,1.50
2023-02-20T12:25:53.495Z,1.63
2023-02-20T12:28:23.285Z,1.30
2023-02-20T12:31:00.165Z,1.63
2023-02-20T12:33:39.480Z,1.45
2023-02-20T12:36:11.128Z,1.30
2023-02-20T12:38:42.335Z,1.50
2023-02-20T12:41:22.655Z,1.40
2023-02-20T12:44:02.198Z,1.50
2023-02-20T12:46:38.039Z,1.40
2023-02-20T12:49:17.913Z,1.40
2023-02-20T12:51:49.360Z,1.30
2023-02-20T12:54:28.578Z,1.13
2023-02-20T12:57:05.315Z,1.45
2023-02-20T12:59:36.201Z,1.50
2023-02-20T13:02:10.221Z,1.35
2023-02-20T13:04:41.398Z,1.50
2023-02-20T13:07:15.203Z,1.45
2023-02-20T13:09:45.528Z,1.50
2023-02-20T13:12:15.389Z,1.50
2023-02-20T13:15:19.361Z,1.50
2023-02-20T13:17:50.978Z,1.40
2023-02-20T13:20:20.654Z,1.30
2023-02-20T13:23:01.811Z,1.40
2023-02-20T13:25:41.882Z,1.55
2023-02-20T13:28:32.124Z,1.20
2023-02-20T13:31:11.340Z,1.42
2023-02-20T13:33:39.438Z,1.20
2023-02-20T13:36:07.958Z,1.33
2023-02-20T13:38:35.857Z,1.35
2023-02-20T13:41:07.797Z,1.25
2023-02-20T13:43:37.057Z,1.38
2023-02-20T13:46:22.534Z,1.40
2023-02-20T13:48:51.497Z,1.45
2023-02-20T13:51:36.164Z,1.50
2023-02-20T13:54:17.809Z,1.00
2023-02-20T13:56:48.164Z,1.42
2023-02-20T13:59:18.505Z,1.50
2023-02-20T14:02:02.617Z,1.52
2023-02-20T14:04:30.569Z,1.50
2023-02-20T14:06:59.300Z,1.20
2023-02-20T14:09:31.242Z,1.40
2023-02-20T14:12:09.208Z,1.67
2023-02-20T14:14:39.849Z,1.42
2023-02-20T14:17:09.201Z,1.38
2023-02-20T14:19:41.293Z,1.40
2023-02-20T14:22:22.492Z,1.27
2023-02-20T14:25:29.715Z,1.40
2023-02-20T14:28:13.504Z,1.30
2023-02-20T14:30:42.766Z,1.50
2023-02-20T14:33:22.008Z,1.40
2023-02-20T14:36:22.801Z,1.45
2023-02-20T14:39:15.086Z,1.33
2023-02-20T14:41:52.337Z,1.48
2023-02-20T14:44:20.230Z,1.60
2023-02-20T14:46:51.374Z,1.23
2023-02-20T14:49:26.311Z,1.55
2023-02-20T14:51:54.332Z,1.40
2023-02-20T14:54:23.666Z,1.38
2023-02-20T14:56:52.148Z,1.27
2023-02-20T14:59:27.284Z,1.40
2023-02-20T15:01:57.312Z,1.50
2023-02-20T15:04:26.126Z,1.25
2023-02-20T15:06:54.429Z,1.30
2023-02-20T15:09:23.374Z,1.42
2023-02-20T15:11:52.336Z,1.40
2023-02-20T15:14:22.376Z,1.20
2023-02-20T15:16:50.433Z,1.30
2023-02-20T15:19:23.653Z,1.30
2023-02-20T15:21:57.225Z,1.50
2023-02-20T15:24:38.884Z,1.35
2023-02-20T15:27:10.940Z,1.48
2023-02-20T15:29:38.820Z,1.50
2023-02-20T15:32:07.473Z,1.35
2023-02-20T15:34:37.966Z,1.38
2023-02-20T15:37:17.911Z,1.42
2023-02-20T15:39:47.760Z,1.33
2023-02-20T15:42:16.022Z,1.40
2023-02-20T15:44:43.879Z,1.25
2023-02-20T15:47:11.707Z,1.65
2023-02-20T15:49:40.938Z,1.40
2023-02-20T15:52:11.413Z,1.45
2023-02-20T15:54:39.290Z,1.50
2023-02-20T15:57:14.038Z,1.30
2023-02-20T15:59:42.102Z,1.30
2023-02-20T16:02:13.923Z,1.58
2023-02-20T16:04:43.188Z,1.50
2023-02-20T16:07:11.042Z,1.38
2023-02-20T16:09:38.883Z,1.50
2023-02-20T16:12:07.232Z,1.35
2023-02-20T16:14:35.078Z,1.50
2023-02-20T16:17:02.930Z,1.40
2023-02-20T16:19:42.143Z,1.30
2023-02-20T16:22:12.404Z,1.58
2023-02-20T16:24:42.393Z,1.52
2023-02-20T16:27:23.689Z,1.30
2023-02-20T16:29:52.941Z,1.30
2023-02-20T16:32:22.820Z,1.55
2023-02-20T16:34:50.745Z,1.50
2023-02-20T16:37:20.268Z,1.60
2023-02-20T16:39:48.279Z,1.40
2023-02-20T16:42:28.759Z,1.40
2023-02-20T16:44:58.656Z,1.30
2023-02-20T16:47:27.935Z,1.20
2023-02-20T16:49:57.766Z,1.48
2023-02-20T16:52:29.129Z,1.30
2023-02-20T16:54:57.171Z,1.40
2023-02-20T16:57:25.234Z,1.40
2023-02-20T16:59:55.493Z,1.35
2023-02-20T17:02:24.989Z,1.30
2023-02-20T17:04:53.228Z,1.50
2023-02-20T17:07:21.169Z,1.35
2023-02-20T17:09:50.359Z,1.40
2023-02-20T17:12:20.389Z,1.40
2023-02-20T17:14:48.421Z,1.38
2023-02-20T17:17:16.426Z,1.50
2023-02-20T17:19:44.502Z,1.50
2023-02-20T17:22:12.711Z,1.40
2023-02-20T17:24:42.023Z,1.40
2023-02-20T17:27:11.619Z,1.30
2023-02-20T17:29:39.581Z,1.60
2023-02-20T17:32:07.729Z,1.40
2023-02-20T17:34:35.626Z,1.33
2023-02-20T17:37:03.448Z,1.33
2023-02-20T17:39:31.284Z,1.40
2023-02-20T17:41:59.141Z,1.40
2023-02-20T17:44:29.892Z,1.27
2023-02-20T17:46:59.156Z,1.30
2023-02-20T17:49:27.535Z,1.42
2023-02-20T17:51:58.494Z,1.55
2023-02-20T17:54:26.410Z,1.15
2023-02-20T17:56:54.262Z,1.30
2023-02-20T17:59:23.630Z,1.20
2023-02-20T18:01:52.931Z,1.20
2023-02-20T18:04:21.408Z,1.30
2023-02-20T18:06:49.596Z,1.40
2023-02-20T18:09:18.247Z,1.50
2023-02-20T18:11:46.224Z,1.40
2023-02-20T18:14:14.418Z,1.40
2023-02-20T18:16:42.365Z,1.42
2023-02-20T18:19:13.829Z,1.33
2023-02-20T18:21:42.773Z,1.40
2023-02-20T18:24:10.793Z,1.27
2023-02-20T18:26:38.771Z,1.35
2023-02-20T18:29:06.642Z,1.20
2023-02-20T18:31:34.646Z,1.30
2023-02-20T18:34:03.549Z,1.30
2023-02-20T18:36:32.804Z,1.30
2023-02-20T18:39:00.755Z,1.23
2023-02-20T18:41:28.667Z,1.30
2023-02-20T18:43:56.524Z,1.40
2023-02-20T18:46:27.912Z,1.20
2023-02-20T18:48:55.888Z,1.15
2023-02-20T18:51:28.424Z,1.40
2023-02-20T18:53:57.664Z,1.30
2023-02-20T18:56:25.641Z,1.20
2023-02-20T18:58:53.636Z,1.40
2023-02-20T19:01:21.977Z,1.27
2023-02-20T19:03:50.369Z,1.20
2023-02-20T19:06:26.028Z,1.35
2023-02-20T19:08:53.954Z,1.40
2023-02-20T19:11:23.263Z,1.48
2023-02-20T19:13:51.221Z,1.27
2023-02-20T19:16:19.335Z,1.20
2023-02-20T19:18:50.900Z,1.30
2023-02-20T19:21:19.596Z,1.40
2023-02-20T19:23:47.642Z,1.30
2023-02-20T19:26:16.082Z,1.30
2023-02-20T19:28:45.520Z,1.33
2023-02-20T19:31:13.924Z,1.40
2023-02-20T19:33:41.923Z,1.40
2023-02-20T19:36:10.834Z,1.20
2023-02-20T19:38:39.072Z,1.10
2023-02-20T19:41:06.978Z,1.30
2023-02-20T19:43:34.864Z,1.20
2023-02-20T19:46:04.155Z,1.40
2023-02-20T19:48:32.104Z,1.30
2023-02-20T19:51:00.007Z,1.10
2023-02-20T19:53:27.919Z,1.38
2023-02-20T19:55:55.820Z,1.10
2023-02-20T19:58:23.711Z,1.23
2023-02-20T20:00:52.033Z,1.20
2023-02-20T20:03:21.284Z,1.15
2023-02-20T20:05:49.190Z,1.20
2023-02-20T20:08:17.421Z,1.42
2023-02-20T20:10:45.331Z,1.38
2023-02-20T20:13:13.194Z,1.23
2023-02-20T20:15:41.119Z,1.20
2023-02-20T20:18:09.795Z,1.20
2023-02-20T20:20:39.017Z,1.15
2023-02-20T20:23:06.920Z,1.27
2023-02-20T20:25:34.797Z,1.02
2023-02-20T20:28:04.582Z,1.10
2023-02-20T20:30:32.949Z,1.33
2023-02-20T20:33:01.285Z,1.10
2023-02-20T20:35:29.838Z,1.10
2023-02-20T20:38:00.000Z,1.33
2023-02-20T20:40:28.548Z,1.10
2023-02-20T20:42:56.732Z,1.20
2023-02-20T20:45:24.874Z,1.10
2023-02-20T20:47:52.731Z,1.23
2023-02-20T20:50:21.449Z,1.30
2023-02-20T20:52:49.487Z,1.20
2023-02-20T20:55:19.053Z,1.08
2023-02-20T20:57:46.964Z,1.30
2023-02-20T21:00:20.652Z,1.30
2023-02-20T21:02:48.619Z,1.20
2023-02-20T21:05:16.702Z,1.27
2023-02-20T21:07:44.544Z,1.20
2023-02-20T21:10:12.601Z,1.17
2023-02-20T21:12:41.899Z,1.35
2023-02-20T21:15:10.520Z,1.20
2023-02-20T21:17:38.616Z,1.33
2023-02-20T21:20:08.177Z,1.25
2023-02-20T21:22:36.197Z,1.10
2023-02-20T21:25:04.544Z,1.17
2023-02-20T21:27:32.536Z,1.25
2023-02-20T21:30:01.768Z,1.08
2023-02-20T21:32:29.917Z,1.25
2023-02-20T21:34:57.825Z,1.25
2023-02-20T21:37:27.638Z,1.10
2023-02-20T21:39:55.525Z,1.20
2023-02-20T21:42:40.929Z,1.20
2023-02-20T21:45:10.746Z,1.10
2023-02-20T21:47:38.610Z,1.20
2023-02-20T21:50:07.125Z,1.25
2023-02-20T21:52:37.350Z,1.30
2023-02-20T21:55:06.285Z,1.35
2023-02-20T21:57:34.174Z,1.17
2023-02-20T22:00:00.990Z,1.20
2023-02-20T22:02:29.207Z,0.90
2023-02-20T22:04:55.975Z,1.10
2023-02-20T22:07:41.333Z,0.90
2023-02-20T22:10:28.195Z,1.20
2023-02-20T22:13:13.832Z,1.30
2023-02-20T22:15:59.455Z,1.00
2023-02-20T22:18:46.193Z,0.85
2023-02-20T22:21:36.196Z,1.10
2023-02-20T22:24:27.741Z,1.15
2023-02-20T22:27:22.602Z,1.15
2023-02-20T22:30:08.185Z,1.10
2023-02-20T22:32:53.490Z,0.90
2023-02-20T22:35:40.321Z,1.10
2023-02-20T22:38:26.135Z,1.10
2023-02-20T22:41:12.138Z,1.17
2023-02-20T22:43:57.775Z,1.00
2023-02-20T22:46:43.239Z,1.00
2023-02-20T22:49:28.475Z,1.08
2023-02-20T22:52:15.546Z,1.10
2023-02-20T22:55:05.644Z,0.95
2023-02-20T22:57:51.682Z,1.00
2023-02-20T23:00:37.398Z,1.10
2023-02-20T23:03:22.672Z,1.08
2023-02-20T23:06:17.493Z,0.90
2023-02-20T23:09:05.562Z,1.10
2023-02-20T23:11:52.335Z,1.10
2023-02-20T23:14:37.629Z,0.90
2023-02-20T23:17:34.998Z,0.80
2023-02-20T23:20:22.304Z,0.88
2023-02-20T23:23:07.813Z,1.05
2023-02-20T23:25:54.665Z,0.90
2023-02-20T23:28:40.218Z,1.00
2023-02-20T23:31:25.778Z,0.90
2023-02-20T23:34:11.201Z,0.80
2023-02-20T23:36:56.738Z,1.10
2023-02-20T23:39:42.312Z,0.90
2023-02-20T23:42:28.994Z,0.90
2023-02-20T23:45:14.343Z,1.00
2023-02-20T23:47:59.848Z,0.80
2023-02-20T23:50:45.560Z,1.10
2023-02-20T23:53:31.023Z,0.95
2023-02-20T23:56:16.513Z,0.93
2023-02-20T23:59:03.480Z,0.93
